Time;durP1;ratioP1;P1;durP2;ratioP2;P2;SDS_P1;SDS_P2;PMS_P1;PMS_P2;Temp;Humidity;BMP_temperature;BMP_pressure;BME280_temperature;BME280_humidity;BME280_pressure;Samples;Min_cycle;Max_cycle;Signal;HPM_P1;HPM_P2
2021/11/16 00:00:55;;;;;;;9.63;6.97;;;;;;;7.28;64.49;95983.16;4990042;28;20104;-77
2021/11/16 00:03:21;;;;;;;9.55;7.28;;;;;;;7.41;63.47;95985.09;4999278;28;20030;-77
2021/11/16 00:05:47;;;;;;;9.18;7.28;;;;;;;7.41;63.91;95978.13;4982939;28;20027;-77
2021/11/16 00:08:12;;;;;;;9.32;7.38;;;;;;;7.32;64.42;95978.41;5000796;28;20027;-78
2021/11/16 00:10:38;;;;;;;12.63;7.25;;;;;;;7.33;64.25;95980.06;4983248;28;20038;-78
2021/11/16 00:13:10;;;;;;;9.80;7.72;;;;;;;7.33;64.44;95985.22;4982357;28;20559;-78
2021/11/16 00:15:35;;;;;;;10.82;7.40;;;;;;;7.13;65.42;95980.59;5009886;28;20501;-77
2021/11/16 00:18:02;;;;;;;9.82;7.80;;;;;;;7.00;65.51;95982.25;5003546;28;20030;-77
2021/11/16 00:20:28;;;;;;;9.13;7.47;;;;;;;6.97;65.88;95974.84;4986095;28;20042;-77
2021/11/16 00:22:53;;;;;;;8.30;7.43;;;;;;;6.92;65.91;95989.13;5009992;28;20573;-76
2021/11/16 00:25:21;;;;;;;9.10;7.28;;;;;;;6.90;66.19;95982.53;5002878;28;20034;-77
2021/11/16 00:27:47;;;;;;;10.55;6.68;;;;;;;7.04;65.81;95986.88;4984822;28;20041;-77
2021/11/16 00:30:12;;;;;;;8.48;7.28;;;;;;;7.17;65.37;95988.81;5000838;28;20033;-77
2021/11/16 00:32:38;;;;;;;11.32;8.27;;;;;;;7.21;65.14;95988.28;5002466;28;20050;-77
2021/11/16 00:35:04;;;;;;;10.00;7.70;;;;;;;6.96;66.01;95976.63;5001927;28;20065;-77
2021/11/16 00:37:29;;;;;;;8.30;7.28;;;;;;;6.73;66.74;95986.28;5002026;28;20029;-77
2021/11/16 00:39:56;;;;;;;8.30;7.28;;;;;;;6.91;66.23;95989.28;4992560;28;20042;-77
2021/11/16 00:42:21;;;;;;;10.70;7.93;;;;;;;6.87;66.59;95982.88;5002066;28;20068;-77
2021/11/16 00:44:47;;;;;;;12.18;8.95;;;;;;;6.82;66.49;95977.44;5002608;28;20038;-76
2021/11/16 00:47:16;;;;;;;10.48;8.85;;;;;;;6.79;66.57;95980.38;4985064;28;20033;-77
2021/11/16 00:49:42;;;;;;;12.38;9.82;;;;;;;6.78;66.79;95986.53;4988798;28;20069;-77
2021/11/16 00:52:07;;;;;;;10.10;8.43;;;;;;;6.87;66.33;95972.53;5008333;28;20050;-77
2021/11/16 00:54:33;;;;;;;12.88;8.75;;;;;;;6.78;66.65;95981.38;5008046;28;20461;-77
2021/11/16 00:56:59;;;;;;;12.55;8.98;;;;;;;6.66;67.30;95980.19;5006048;28;20031;-77
2021/11/16 00:59:24;;;;;;;10.88;8.80;;;;;;;6.50;67.64;95978.59;4984772;28;20030;-77
2021/11/16 01:01:50;;;;;;;11.80;8.98;;;;;;;6.55;67.78;95982.25;5001727;28;20409;-76
2021/11/16 01:04:16;;;;;;;15.30;10.80;;;;;;;6.45;67.86;95981.72;4975675;28;20443;-77
2021/11/16 01:06:42;;;;;;;14.38;9.70;;;;;;;6.48;68.02;95983.94;5001641;28;20025;-77
2021/11/16 01:09:07;;;;;;;12.32;9.45;;;;;;;6.50;68.45;95984.56;4984592;28;20113;-76
2021/11/16 01:11:33;;;;;;;12.63;9.65;;;;;;;6.32;68.83;95978.94;4975713;28;20121;-76
2021/11/16 01:13:58;;;;;;;12.70;8.32;;;;;;;6.45;68.90;95984.31;4968258;28;20037;-76
2021/11/16 01:16:24;;;;;;;10.70;8.77;;;;;;;6.50;68.74;95989.72;5001756;28;20104;-76
2021/11/16 01:18:50;;;;;;;10.38;8.48;;;;;;;6.47;68.95;95990.09;5008149;28;20029;-76
2021/11/16 01:21:15;;;;;;;11.80;8.07;;;;;;;6.49;69.08;95984.75;4991915;28;20112;-77
2021/11/16 01:23:41;;;;;;;12.27;8.13;;;;;;;6.33;69.45;95991.66;4991561;28;20799;-76
2021/11/16 01:26:06;;;;;;;12.15;9.50;;;;;;;6.38;69.90;95983.41;4983064;28;20460;-76
2021/11/16 01:28:32;;;;;;;12.32;8.77;;;;;;;6.49;69.03;95988.13;5001067;28;20065;-76
2021/11/16 01:31:01;;;;;;;10.85;9.07;;;;;;;6.52;68.84;95985.22;4992378;28;20092;-76
2021/11/16 01:33:29;;;;;;;13.63;9.25;;;;;;;6.63;68.57;95978.78;5000308;28;20084;-76
2021/11/16 01:35:54;;;;;;;11.75;8.77;;;;;;;6.69;68.23;95977.28;4968398;28;20038;-77
2021/11/16 01:38:22;;;;;;;10.85;8.73;;;;;;;6.64;68.49;95975.22;5009252;28;20025;-78
2021/11/16 01:40:48;;;;;;;11.40;9.43;;;;;;;6.66;68.21;95986.16;4984731;28;20042;-77
2021/11/16 01:43:16;;;;;;;12.00;9.10;;;;;;;6.65;68.76;95981.19;5000888;28;20028;-77
2021/11/16 01:45:42;;;;;;;13.77;9.60;;;;;;;6.68;68.19;95980.84;4967465;28;20046;-77
2021/11/16 01:48:09;;;;;;;17.55;10.75;;;;;;;6.55;68.40;95977.09;5000781;28;20108;-77
2021/11/16 01:50:35;;;;;;;12.93;9.93;;;;;;;6.56;68.78;95981.28;4999753;28;20034;-78
2021/11/16 01:53:00;;;;;;;17.15;10.23;;;;;;;6.60;68.68;95979.94;4990091;28;20037;-77
2021/11/16 01:55:26;;;;;;;12.25;9.25;;;;;;;6.71;67.85;95975.31;5000947;28;20030;-77
2021/11/16 01:57:52;;;;;;;12.32;8.80;;;;;;;6.75;67.73;95976.56;5000311;28;20425;-77
2021/11/16 02:00:23;;;;;;;12.75;9.20;;;;;;;6.90;67.64;95974.75;4983026;28;20041;-77
2021/11/16 02:02:49;;;;;;;14.07;10.25;;;;;;;6.90;67.28;95974.75;4984244;28;20423;-77
2021/11/16 02:05:14;;;;;;;12.27;10.60;;;;;;;6.86;68.06;95968.34;4985623;28;20026;-77
2021/11/16 02:07:44;;;;;;;19.13;11.60;;;;;;;6.97;67.36;95970.47;4977787;28;20041;-77
2021/11/16 02:10:09;;;;;;;12.43;10.38;;;;;;;7.03;66.90;95967.16;4999756;28;20058;-77
2021/11/16 02:12:35;;;;;;;15.80;11.15;;;;;;;7.04;67.00;95971.38;5000685;28;20033;-77
2021/11/16 02:15:00;;;;;;;17.63;11.27;;;;;;;7.17;67.05;95958.59;4999765;28;20453;-77
2021/11/16 02:17:26;;;;;;;16.67;12.32;;;;;;;7.14;66.74;95961.50;4998343;28;20471;-77
2021/11/16 02:19:55;;;;;;;18.10;12.35;;;;;;;7.19;66.75;95961.78;5000861;28;20034;-77
2021/11/16 02:22:22;;;;;;;18.40;13.27;;;;;;;7.18;66.98;95969.72;4999209;28;20121;-78
2021/11/16 02:24:48;;;;;;;20.42;13.80;;;;;;;7.22;66.95;95947.69;5001639;28;20105;-78
2021/11/16 02:27:13;;;;;;;23.98;14.50;;;;;;;7.32;66.46;95955.13;4982007;28;20026;-77
2021/11/16 02:29:43;;;;;;;22.83;15.23;;;;;;;7.26;67.05;95953.28;4991772;28;20037;-77
2021/11/16 02:32:09;;;;;;;24.02;15.20;;;;;;;7.33;66.58;95954.19;5001115;28;20043;-77
2021/11/16 02:34:34;;;;;;;18.83;14.38;;;;;;;7.31;66.56;95954.34;5000307;28;20037;-78
2021/11/16 02:37:00;;;;;;;24.55;13.55;;;;;;;7.25;66.84;95946.50;5000046;28;20559;-78
2021/11/16 02:39:25;;;;;;;18.30;12.38;;;;;;;7.18;66.96;95949.84;4983764;28;20599;-78
2021/11/16 02:41:52;;;;;;;17.58;10.95;;;;;;;7.15;66.91;95946.78;4983661;28;20171;-77
2021/11/16 02:46:47;;;;;;;15.27;10.25;;;;;;;6.98;67.15;95935.88;5001219;22;20116;-77
2021/11/16 02:49:13;;;;;;;17.48;11.88;;;;;;;7.12;67.23;95950.56;5000692;28;20045;-78
2021/11/16 02:51:39;;;;;;;16.88;11.85;;;;;;;6.96;68.37;95958.53;5001482;28;20051;-78
2021/11/16 02:54:16;;;;;;;16.25;11.80;;;;;;;6.80;69.31;95959.50;4984305;28;20029;-78
2021/11/16 02:56:41;;;;;;;17.35;12.32;;;;;;;6.66;69.79;95960.31;4983874;28;20025;-78
2021/11/16 02:59:07;;;;;;;17.30;12.27;;;;;;;6.41;70.94;95959.00;5001252;28;20121;-78
2021/11/16 03:01:32;;;;;;;17.73;12.45;;;;;;;6.25;71.46;95955.59;5001060;28;20045;-78
2021/11/16 03:03:58;;;;;;;17.02;12.15;;;;;;;6.20;71.92;95962.28;5001184;28;20572;-78
2021/11/16 03:06:23;;;;;;;18.60;12.80;;;;;;;6.28;71.58;95955.25;5007989;28;20113;-78
2021/11/16 03:08:49;;;;;;;19.45;12.43;;;;;;;6.33;71.02;95965.84;4999387;28;20113;-78
2021/11/16 03:11:16;;;;;;;19.17;12.60;;;;;;;6.31;71.14;95964.41;4975909;28;20029;-78
2021/11/16 03:13:41;;;;;;;20.33;12.38;;;;;;;6.27;71.01;95961.38;4983799;28;20060;-78
2021/11/16 03:16:15;;;;;;;17.45;12.48;;;;;;;6.26;71.46;95971.91;4999613;28;20065;-78
2021/11/16 03:18:45;;;;;;;16.83;11.98;;;;;;;6.23;71.60;95967.09;4994539;28;20030;-78
2021/11/16 03:21:12;;;;;;;13.80;10.82;;;;;;;6.20;71.90;95977.78;4991928;28;20069;-78
2021/11/16 03:23:38;;;;;;;17.08;11.63;;;;;;;6.08;72.44;95968.84;5000319;28;20534;-78
2021/11/16 03:26:04;;;;;;;17.23;12.63;;;;;;;6.05;72.24;95969.19;4991784;28;20030;-78
2021/11/16 03:28:31;;;;;;;16.70;11.95;;;;;;;6.13;72.31;95961.38;4991507;28;20092;-78
2021/11/16 03:30:59;;;;;;;19.27;11.65;;;;;;;6.05;72.45;95964.84;4967452;28;20037;-78
2021/11/16 03:33:25;;;;;;;16.15;10.90;;;;;;;6.05;72.52;95975.16;4983492;28;20480;-78
2021/11/16 03:35:50;;;;;;;14.80;10.75;;;;;;;6.07;71.81;95975.00;4983111;28;20035;-78
2021/11/16 03:38:18;;;;;;;13.73;10.45;;;;;;;6.11;72.14;95977.03;4982480;28;20037;-78
2021/11/16 03:40:44;;;;;;;16.45;11.02;;;;;;;6.12;71.76;95975.25;5007438;28;20038;-78
2021/11/16 03:43:10;;;;;;;16.15;10.63;;;;;;;6.08;72.41;95963.69;5007382;28;20033;-78
2021/11/16 03:45:36;;;;;;;15.93;10.13;;;;;;;6.14;71.43;95965.56;4975029;28;20033;-78
2021/11/16 03:48:01;;;;;;;16.30;10.90;;;;;;;6.26;70.67;95969.31;5001755;28;20129;-78
2021/11/16 03:50:28;;;;;;;11.60;9.73;;;;;;;6.34;70.38;95974.38;5011102;28;20148;-78
2021/11/16 03:52:54;;;;;;;16.23;10.90;;;;;;;6.24;71.37;95963.53;5003893;28;20034;-78
2021/11/16 03:55:21;;;;;;;14.65;11.13;;;;;;;6.23;71.17;95973.06;4993662;28;20030;-77
2021/11/16 03:57:46;;;;;;;15.80;12.02;;;;;;;6.24;70.54;95971.28;4978239;28;20026;-78
2021/11/16 04:00:15;;;;;;;13.23;9.57;;;;;;;6.20;71.21;95965.66;4986127;28;20042;-78
2021/11/16 04:02:41;;;;;;;15.65;10.32;;;;;;;6.28;70.32;95959.59;5001737;28;20105;-78
2021/11/16 04:05:07;;;;;;;15.10;10.07;;;;;;;6.24;70.64;95968.69;4978365;28;20076;-78
2021/11/16 04:07:33;;;;;;;15.02;10.98;;;;;;;6.14;70.79;95960.38;5002054;28;20037;-78
2021/11/16 04:09:58;;;;;;;16.23;11.43;;;;;;;6.19;70.96;95961.47;4994822;28;20117;-79
2021/11/16 04:12:24;;;;;;;18.25;11.07;;;;;;;6.20;70.63;95946.78;5003714;28;20039;-80
2021/11/16 04:14:50;;;;;;;14.23;10.80;;;;;;;6.18;70.58;95956.47;5003656;28;20040;-78
2021/11/16 04:17:16;;;;;;;15.32;11.43;;;;;;;6.18;70.50;95948.72;5004398;28;20026;-78
2021/11/16 04:19:43;;;;;;;18.25;11.48;;;;;;;6.27;70.94;95956.22;5010282;28;20072;-79
2021/11/16 04:22:08;;;;;;;18.90;11.05;;;;;;;6.34;70.10;95958.88;5002567;28;20044;-78
2021/11/16 04:24:34;;;;;;;15.98;11.02;;;;;;;6.28;69.55;95969.94;5001258;28;20039;-79
2021/11/16 04:26:59;;;;;;;18.00;12.15;;;;;;;6.26;70.34;95961.56;5008985;28;20042;-79
2021/11/16 04:29:25;;;;;;;16.00;12.13;;;;;;;6.22;70.17;95966.28;4996977;28;20038;-80
2021/11/16 04:31:52;;;;;;;16.88;11.73;;;;;;;6.31;69.78;95959.25;4989814;28;20038;-81
2021/11/16 04:34:17;;;;;;;17.08;11.35;;;;;;;6.31;70.13;95959.25;4988343;28;20033;-81
2021/11/16 04:36:43;;;;;;;12.80;10.30;;;;;;;6.35;69.73;95950.19;5007058;28;20049;-81
2021/11/16 04:39:08;;;;;;;19.33;10.80;;;;;;;6.44;69.28;95959.44;4996936;28;20038;-80
2021/11/16 04:41:35;;;;;;;13.00;9.95;;;;;;;6.34;69.29;95969.22;5006917;28;20053;-80
2021/11/16 04:44:03;;;;;;;12.48;9.93;;;;;;;6.28;70.27;95952.66;4995794;28;20109;-79
2021/11/16 04:46:28;;;;;;;18.75;10.70;;;;;;;6.23;70.33;95952.41;4996940;28;20251;-83
2021/11/16 04:59:36;;;;;;;19.95;11.90;;;;;;;6.28;69.23;95949.28;4988933;28;20080;-80
2021/11/16 05:04:46;;;;;;;18.38;11.57;;;;;;;6.50;68.87;95958.72;4996688;28;20133;-81
2021/11/16 05:07:15;;;;;;;16.65;11.90;;;;;;;6.50;68.43;95969.06;4975603;28;20525;-81
2021/11/16 05:09:40;;;;;;;24.00;11.65;;;;;;;6.54;68.67;95954.81;4992320;28;20395;-81
2021/11/16 05:12:06;;;;;;;14.80;11.63;;;;;;;6.58;68.45;95956.06;4995032;28;20117;-81
2021/11/16 05:14:32;;;;;;;15.30;11.43;;;;;;;6.73;67.74;95960.44;5001656;28;20477;-81
2021/11/16 05:16:57;;;;;;;17.23;12.02;;;;;;;6.70;67.73;95960.78;4992339;28;20041;-80
2021/11/16 05:19:23;;;;;;;17.13;10.80;;;;;;;6.60;67.19;95964.44;5010156;28;20029;-82
2021/11/16 05:21:50;;;;;;;18.80;12.95;;;;;;;6.67;67.46;95953.38;5010355;28;20046;-81
2021/11/16 05:24:16;;;;;;;17.08;11.23;;;;;;;6.73;67.20;95947.50;5012036;28;20489;-82
2021/11/16 05:26:41;;;;;;;16.75;11.45;;;;;;;6.70;66.86;95968.53;5010754;28;20070;-81
2021/11/16 05:29:07;;;;;;;14.52;11.27;;;;;;;6.67;66.92;95953.38;5002226;28;20513;-80
2021/11/16 05:31:32;;;;;;;15.20;10.93;;;;;;;6.62;66.97;95957.31;5010401;28;20052;-81
2021/11/16 05:33:58;;;;;;;19.75;11.30;;;;;;;6.54;66.93;95964.34;4995661;28;20034;-81
2021/11/16 05:36:24;;;;;;;14.60;11.18;;;;;;;6.54;67.39;95970.31;5009838;28;20037;-82
2021/11/16 05:38:49;;;;;;;18.13;11.05;;;;;;;6.67;67.25;95966.28;4993271;28;20589;-82
2021/11/16 05:41:16;;;;;;;22.45;11.40;;;;;;;6.69;66.82;95972.13;4985337;28;20533;-82
2021/11/16 05:43:44;;;;;;;19.85;11.40;;;;;;;6.68;66.75;95973.09;4992701;28;20050;-82
2021/11/16 05:46:09;;;;;;;21.48;11.40;;;;;;;6.71;66.72;95972.72;4993562;28;20034;-82
2021/11/16 05:48:37;;;;;;;15.80;11.60;;;;;;;6.75;66.29;95984.31;5010774;28;20410;-82
2021/11/16 05:51:02;;;;;;;17.15;10.82;;;;;;;6.72;66.32;95982.09;4993298;28;20038;-81
2021/11/16 05:53:29;;;;;;;15.68;10.45;;;;;;;6.76;66.65;95981.53;5009345;28;20045;-81
2021/11/16 05:55:54;;;;;;;16.90;11.10;;;;;;;6.69;66.55;95972.13;4993964;28;20049;-81
2021/11/16 05:58:20;;;;;;;15.73;10.65;;;;;;;6.89;66.24;95983.50;4993568;28;20038;-81
2021/11/16 06:00:45;;;;;;;17.52;11.55;;;;;;;7.00;65.68;95983.06;5011346;28;20077;-80
2021/11/16 06:03:11;;;;;;;18.10;11.95;;;;;;;7.02;65.74;95981.09;4992802;28;20049;-80
2021/11/16 06:05:37;;;;;;;17.55;12.00;;;;;;;7.12;65.49;95984.19;5001303;28;20030;-81
2021/11/16 06:08:03;;;;;;;15.55;10.88;;;;;;;7.09;65.46;95984.53;5008581;28;20052;-81
2021/11/16 06:10:28;;;;;;;21.75;12.65;;;;;;;7.02;65.82;95977.69;4999948;28;20073;-79
2021/11/16 06:12:54;;;;;;;16.52;12.35;;;;;;;7.02;65.51;95994.03;5015437;28;20035;-85
2021/11/16 06:15:20;;;;;;;21.90;12.55;;;;;;;7.10;65.12;95980.97;5006549;28;20030;-82
2021/11/16 06:17:45;;;;;;;18.15;12.55;;;;;;;7.13;65.42;95980.59;4995559;28;20050;-79
2021/11/16 06:20:18;;;;;;;19.05;12.48;;;;;;;7.19;64.58;95986.84;4989770;28;20057;-79
2021/11/16 06:22:44;;;;;;;17.52;11.60;;;;;;;7.27;63.86;95981.56;4994913;28;20033;-79
2021/11/16 06:25:13;;;;;;;15.10;11.20;;;;;;;7.32;63.65;95993.94;4979291;28;20109;-79
2021/11/16 06:27:38;;;;;;;14.70;11.38;;;;;;;7.32;63.54;95993.94;4990399;28;20535;-79
2021/11/16 06:30:05;;;;;;;20.52;11.18;;;;;;;7.37;63.43;95986.47;5009771;28;20038;-79
2021/11/16 06:32:31;;;;;;;22.90;12.75;;;;;;;7.45;63.25;95989.72;4959763;28;20092;-79
2021/11/16 06:34:56;;;;;;;16.63;11.70;;;;;;;7.49;62.88;95985.81;4990110;28;20034;-79
2021/11/16 06:37:22;;;;;;;20.88;12.35;;;;;;;7.72;62.37;95992.59;5001597;28;20038;-78
2021/11/16 06:39:47;;;;;;;20.67;11.57;;;;;;;7.72;62.07;95990.00;4994909;28;20034;-78
2021/11/16 06:42:14;;;;;;;20.10;12.48;;;;;;;7.83;62.00;95986.91;4988011;28;20041;-79
2021/11/16 06:44:41;;;;;;;17.50;11.95;;;;;;;7.62;62.47;95990.28;4987267;28;20038;-79
2021/11/16 06:47:09;;;;;;;26.05;12.77;;;;;;;7.63;62.75;95986.72;4987784;28;20512;-79
2021/11/16 06:49:39;;;;;;;19.00;12.02;;;;;;;7.73;62.67;95987.22;4987421;28;20500;-79
2021/11/16 06:52:05;;;;;;;19.83;12.73;;;;;;;7.82;62.84;95978.34;5004767;28;20042;-80
2021/11/16 06:54:31;;;;;;;18.52;12.65;;;;;;;7.88;61.94;95976.78;5010679;28;20053;-80
2021/11/16 06:56:57;;;;;;;20.70;13.07;;;;;;;7.91;62.38;95989.38;5004119;28;20037;-81
2021/11/16 06:59:24;;;;;;;20.08;12.30;;;;;;;7.88;61.70;95989.75;4978962;28;20067;-80
2021/11/16 07:01:50;;;;;;;16.88;12.23;;;;;;;7.75;62.16;95990.41;4969782;28;20065;-79
2021/11/16 07:04:15;;;;;;;21.33;12.50;;;;;;;7.66;63.13;95990.75;4995071;28;20076;-81
2021/11/16 07:06:45;;;;;;;21.33;12.73;;;;;;;7.62;63.25;95985.09;4987112;28;20121;-80
2021/11/16 07:09:13;;;;;;;25.92;12.90;;;;;;;7.64;63.08;96001.25;4979024;28;20036;-80
2021/11/16 07:11:53;;;;;;;22.15;12.95;;;;;;;7.67;62.78;95995.72;4979165;28;20061;-81
2021/11/16 07:14:26;;;;;;;17.15;12.10;;;;;;;7.78;63.16;96004.78;4970120;28;20046;-81
2021/11/16 07:16:55;;;;;;;21.88;12.57;;;;;;;7.79;62.41;96002.00;4987754;28;20038;-80
2021/11/16 07:19:40;;;;;;;19.55;12.52;;;;;;;7.76;62.46;96007.56;4993826;28;20042;-80
2021/11/16 07:22:11;;;;;;;18.13;12.38;;;;;;;7.82;62.39;96012.00;5003404;28;20092;-80
2021/11/16 07:24:51;;;;;;;16.20;12.10;;;;;;;8.06;61.79;95995.28;4994347;28;20041;-80
2021/11/16 07:27:18;;;;;;;15.30;11.13;;;;;;;8.15;61.85;96008.13;4978115;28;20041;-80
2021/11/16 07:29:51;;;;;;;17.65;11.73;;;;;;;8.11;61.08;96007.66;4955947;28;20042;-80
2021/11/16 07:32:33;;;;;;;24.35;11.85;;;;;;;8.19;60.91;96011.94;5010379;28;20046;-81
2021/11/16 07:35:02;;;;;;;22.73;12.23;;;;;;;8.30;61.07;96019.19;4994446;28;20106;-80
2021/11/16 07:37:33;;;;;;;25.63;11.63;;;;;;;8.02;61.47;96012.19;4987468;28;20296;-81
2021/11/16 07:40:08;;;;;;;17.48;11.43;;;;;;;8.16;60.56;96010.50;5010073;28;20049;-80
2021/11/16 07:42:36;;;;;;;24.08;11.38;;;;;;;8.04;61.35;96005.03;5004213;28;20066;-80
2021/11/16 07:45:04;;;;;;;20.20;10.75;;;;;;;8.02;61.77;96001.03;4986810;28;20042;-80
2021/11/16 07:47:37;;;;;;;19.55;12.10;;;;;;;8.05;61.61;96024.75;5014116;28;20049;-78
2021/11/16 07:50:07;;;;;;;17.83;10.88;;;;;;;7.98;61.41;96021.31;5012373;28;20038;-81
2021/11/16 07:52:32;;;;;;;21.30;10.65;;;;;;;7.92;62.08;96014.28;4986116;28;20181;-79
2021/11/16 07:54:58;;;;;;;19.60;11.80;;;;;;;8.14;61.55;96015.09;4987918;28;20034;-82
2021/11/16 07:57:23;;;;;;;19.02;11.13;;;;;;;7.99;62.05;96014.34;4987125;28;20052;-81
2021/11/16 07:59:54;;;;;;;20.75;10.43;;;;;;;8.00;62.08;96023.72;5003346;28;20068;-81
2021/11/16 08:02:33;;;;;;;22.75;10.60;;;;;;;7.81;62.22;96023.38;5005009;28;20413;-81
2021/11/16 08:05:20;;;;;;;13.55;9.82;;;;;;;7.63;63.34;96015.19;5006994;28;20065;-80
2021/11/16 08:08:16;;;;;;;20.30;11.05;;;;;;;7.66;63.78;96014.03;5005362;28;20038;-79
2021/11/16 08:10:44;;;;;;;18.75;10.07;;;;;;;7.71;63.97;96004.72;5003996;28;20089;-80
2021/11/16 08:13:19;;;;;;;14.60;9.82;;;;;;;7.83;64.42;96011.03;4992383;28;20046;-79
2021/11/16 08:15:45;;;;;;;23.17;9.18;;;;;;;7.89;64.18;96008.69;5007105;28;20036;-80
2021/11/16 08:18:14;;;;;;;12.95;9.20;;;;;;;7.92;63.00;96011.69;5047916;23;20037;-80
2021/11/16 08:20:40;;;;;;;16.50;8.85;;;;;;;7.94;63.91;96008.91;5034481;28;20037;-85
2021/11/16 08:23:08;;;;;;;15.13;9.88;;;;;;;7.98;62.92;96010.16;5028921;28;20037;-78
2021/11/16 08:25:33;;;;;;;16.95;9.50;;;;;;;7.96;63.05;96017.28;5017015;28;20515;-76
2021/11/16 08:28:00;;;;;;;12.93;8.57;;;;;;;7.92;63.25;96023.84;5028329;28;20030;-76
2021/11/16 08:30:26;;;;;;;12.80;9.05;;;;;;;7.58;63.73;96024.50;4994532;28;20548;-76
2021/11/16 08:32:57;;;;;;;15.48;9.20;;;;;;;7.64;63.81;96018.56;4993801;28;20099;-76
2021/11/16 08:35:24;;;;;;;11.45;9.40;;;;;;;7.83;63.32;96016.22;4995580;28;21019;-76
2021/11/16 08:37:55;;;;;;;13.15;9.50;;;;;;;7.99;63.08;96019.53;5013764;28;20041;-76
2021/11/16 08:40:22;;;;;;;26.60;9.65;;;;;;;7.91;62.91;96014.47;4998191;28;20045;-75
2021/11/16 08:43:13;;;;;;;13.45;9.68;;;;;;;8.09;62.47;96007.84;5013291;28;20504;-76
2021/11/16 08:45:43;;;;;;;19.08;10.18;;;;;;;8.15;62.58;96014.09;5030330;28;20497;-78
2021/11/16 08:48:18;;;;;;;13.82;8.98;;;;;;;8.12;62.66;96022.22;4982233;28;20448;-76
2021/11/16 08:50:48;;;;;;;14.75;10.65;;;;;;;7.96;63.70;96012.91;5031110;28;20099;-76
2021/11/16 08:53:18;;;;;;;17.77;10.45;;;;;;;8.12;63.39;96028.19;5031295;28;20044;-76
2021/11/16 08:55:44;;;;;;;12.20;9.00;;;;;;;8.11;63.70;96015.44;5020645;28;20041;-76
2021/11/16 08:58:11;;;;;;;14.07;7.85;;;;;;;8.13;63.72;96018.63;5013268;28;20044;-76
2021/11/16 09:00:49;;;;;;;10.95;8.43;;;;;;;7.98;64.13;96015.34;5013096;28;20037;-76
2021/11/16 09:03:18;;;;;;;12.43;8.50;;;;;;;8.14;64.25;96012.50;5013142;28;20045;-76
2021/11/16 09:05:45;;;;;;;8.77;6.93;;;;;;;8.16;63.04;96020.09;5012590;28;20034;-76
2021/11/16 09:08:22;;;;;;;14.13;7.25;;;;;;;8.00;63.74;96009.00;5030987;28;20029;-76
2021/11/16 09:10:50;;;;;;;10.95;7.75;;;;;;;8.08;63.63;96005.44;5012715;28;20087;-76
2021/11/16 09:13:16;;;;;;;7.72;6.80;;;;;;;8.21;63.35;96005.56;5012409;28;20175;-76
2021/11/16 09:15:44;;;;;;;11.63;6.65;;;;;;;8.30;62.71;96008.84;5013080;28;20048;-77
2021/11/16 09:18:14;;;;;;;13.25;7.40;;;;;;;8.28;62.82;96010.78;5030984;28;20038;-76
2021/11/16 09:20:39;;;;;;;10.20;7.53;;;;;;;8.21;62.96;95997.00;5012961;28;20041;-76
2021/11/16 09:23:05;;;;;;;11.77;7.25;;;;;;;8.13;63.16;95997.91;5012797;28;20045;-76
2021/11/16 09:25:35;;;;;;;8.70;6.85;;;;;;;8.28;63.11;96001.22;4980005;28;20451;-77
2021/11/16 09:28:05;;;;;;;13.45;7.07;;;;;;;8.48;62.08;95995.44;4996731;28;20495;-77
2021/11/16 09:30:36;;;;;;;9.95;7.15;;;;;;;8.51;62.11;95995.06;4997782;28;20081;-76
2021/11/16 09:33:08;;;;;;;7.93;6.57;;;;;;;8.52;61.68;95996.66;5011200;28;20034;-76
2021/11/16 09:35:43;;;;;;;8.43;5.95;;;;;;;8.56;61.44;95993.47;5011850;28;20044;-76
2021/11/16 09:38:09;;;;;;;11.05;6.63;;;;;;;8.64;61.61;95989.94;4996791;28;20037;-76
2021/11/16 09:40:35;;;;;;;12.07;6.72;;;;;;;8.81;61.03;95983.47;5010797;28;20429;-76
2021/11/16 09:43:03;;;;;;;10.77;7.13;;;;;;;9.00;60.28;95974.97;5009816;28;20033;-76
2021/11/16 09:45:30;;;;;;;7.45;6.10;;;;;;;9.15;59.53;95982.63;5011009;28;20034;-76
2021/11/16 09:47:56;;;;;;;11.73;6.15;;;;;;;9.00;60.16;95974.97;5029079;28;20042;-76
2021/11/16 09:50:23;;;;;;;8.85;6.47;;;;;;;8.85;60.62;95971.72;5012375;28;20041;-76
2021/11/16 09:52:51;;;;;;;8.43;5.70;;;;;;;8.64;61.20;95972.59;5030049;28;20038;-76
2021/11/16 09:55:26;;;;;;;12.43;6.55;;;;;;;8.54;61.60;95963.56;5010799;28;20037;-76
2021/11/16 09:58:06;;;;;;;9.70;6.57;;;;;;;8.56;61.73;95966.75;5001583;28;20046;-76
2021/11/16 10:00:33;;;;;;;14.85;7.30;;;;;;;8.84;61.25;95949.34;5029333;28;20076;-76
2021/11/16 10:03:08;;;;;;;12.48;6.30;;;;;;;8.76;61.63;95959.09;5012346;28;20048;-77
2021/11/16 10:05:42;;;;;;;7.05;5.38;;;;;;;8.67;61.84;95958.44;5012119;28;20041;-76
2021/11/16 10:08:08;;;;;;;12.65;5.70;;;;;;;8.69;61.61;95951.28;4994324;28;20511;-77
2021/11/16 10:10:36;;;;;;;7.88;6.05;;;;;;;8.62;62.00;95947.84;4994267;28;20033;-77
2021/11/16 10:13:07;;;;;;;6.82;5.93;;;;;;;8.59;62.28;95943.03;5029526;28;20039;-76
2021/11/16 10:15:33;;;;;;;9.73;6.00;;;;;;;8.84;61.92;95938.19;5011488;28;20049;-76
2021/11/16 10:17:58;;;;;;;13.40;6.25;;;;;;;8.82;61.55;95940.97;4994869;28;20459;-77
2021/11/16 10:20:26;;;;;;;12.95;6.25;;;;;;;8.94;60.97;95936.81;5011255;28;20037;-77
2021/11/16 10:22:53;;;;;;;12.70;5.78;;;;;;;9.11;60.57;95926.09;5011321;28;20041;-77
2021/11/16 10:25:23;;;;;;;6.13;5.53;;;;;;;9.19;60.67;95925.94;5011014;28;20035;-76
2021/11/16 10:27:50;;;;;;;6.15;5.55;;;;;;;9.23;60.49;95927.13;5010387;28;20033;-76
2021/11/16 10:30:23;;;;;;;9.05;6.22;;;;;;;9.13;60.83;95913.75;4994817;28;20635;-76
2021/11/16 10:33:09;;;;;;;15.65;6.40;;;;;;;9.04;61.19;95910.53;5029511;28;20095;-77
2021/11/16 10:35:58;;;;;;;7.85;6.00;;;;;;;8.96;61.40;95911.50;5011470;28;20041;-76
2021/11/16 10:38:24;;;;;;;11.32;5.72;;;;;;;8.83;62.22;95903.66;4993846;28;20041;-77
2021/11/16 10:40:50;;;;;;;7.78;6.88;;;;;;;8.88;62.00;95908.28;5029958;28;20174;-75
2021/11/16 10:43:16;;;;;;;11.30;7.65;;;;;;;8.89;61.41;95905.47;5013657;28;20517;-77
2021/11/16 10:45:44;;;;;;;21.55;7.80;;;;;;;8.84;61.77;95901.88;5012557;28;20045;-76
2021/11/16 10:48:12;;;;;;;11.65;7.10;;;;;;;8.82;62.15;95899.47;5012983;28;20405;-77
2021/11/16 10:50:38;;;;;;;9.18;6.20;;;;;;;9.02;62.31;95905.53;4995777;28;20531;-77
2021/11/16 10:53:11;;;;;;;8.20;6.45;;;;;;;8.87;62.22;95899.69;5011670;28;20037;-76
2021/11/16 10:55:53;;;;;;;14.98;6.15;;;;;;;8.86;62.81;95900.69;4996335;28;20564;-77
2021/11/16 10:58:46;;;;;;;10.70;6.05;;;;;;;8.77;63.52;95890.66;5028599;28;20041;-76
2021/11/16 11:01:11;;;;;;;;;;;;;;;8.68;63.43;95896.03;5015219;28;20370;-76
2021/11/16 11:03:40;;;;;;;11.27;6.80;;;;;;;8.78;63.67;95881.88;5011322;28;19973;-76
2021/11/16 11:06:07;;;;;;;8.15;6.30;;;;;;;8.73;65.02;95879.88;4995402;28;20057;-77
2021/11/16 11:08:45;;;;;;;9.93;6.25;;;;;;;8.85;64.28;95885.31;5009337;28;20459;-74
2021/11/16 11:11:14;;;;;;;9.25;5.88;;;;;;;8.80;64.33;95891.09;5029304;28;20048;-76
2021/11/16 11:13:40;;;;;;;9.13;5.53;;;;;;;8.80;64.54;95882.50;5029360;28;20050;-77
2021/11/16 11:16:10;;;;;;;7.13;5.05;;;;;;;8.70;65.52;95881.06;4994070;28;20029;-77
2021/11/16 11:18:38;;;;;;;7.47;5.88;;;;;;;8.71;65.26;95882.66;4993794;28;20037;-76
2021/11/16 11:21:23;;;;;;;7.25;6.25;;;;;;;8.88;65.01;95875.34;5027420;28;20505;-76
2021/11/16 11:23:52;;;;;;;7.70;5.95;;;;;;;9.07;63.93;95870.41;5027369;28;20037;-76
2021/11/16 11:26:30;;;;;;;9.70;5.53;;;;;;;8.97;63.57;95874.19;5003567;28;20543;-76
2021/11/16 11:29:18;;;;;;;10.10;5.30;;;;;;;9.05;63.55;95870.59;5011413;28;20123;-76
2021/11/16 11:31:45;;;;;;;4.88;4.47;;;;;;;9.23;63.02;95870.03;5012024;28;20112;-76
2021/11/16 11:34:11;;;;;;;7.38;5.00;;;;;;;9.23;62.24;95876.03;4994592;28;20030;-76
2021/11/16 11:36:37;;;;;;;5.03;3.90;;;;;;;9.19;62.67;95879.22;5028628;28;20037;-76
2021/11/16 11:39:14;;;;;;;6.40;4.97;;;;;;;9.21;62.76;95866.84;5010576;28;20425;-76
2021/11/16 11:41:52;;;;;;;9.13;4.15;;;;;;;9.12;62.95;95878.41;5010190;28;20069;-76
2021/11/16 11:44:19;;;;;;;5.63;4.00;;;;;;;9.09;62.43;95874.41;5027805;28;20489;-76
2021/11/16 11:46:59;;;;;;;5.28;4.70;;;;;;;9.14;62.56;95876.44;4976630;28;20044;-76
2021/11/16 11:49:28;;;;;;;6.63;4.28;;;;;;;9.12;63.16;95878.41;5009669;28;20041;-76
2021/11/16 11:51:55;;;;;;;5.10;4.63;;;;;;;9.07;63.21;95870.41;4994196;28;20121;-76